Time;durP1;ratioP1;P1;durP2;ratioP2;P2;SDS_P1;SDS_P2;PMS_P1;PMS_P2;Temp;Humidity;BMP_temperature;BMP_pressure;BME280_temperature;BME280_humidity;BME280_pressure;Samples;Min_cycle;Max_cycle;Signal;HPM_P1;HPM_P2
2024/03/21 00:00:30;;;;;;;7.13;5.60;;;6.90;99.90;6.80;100873.00;;;;4886662;28;108404;-65
2024/03/21 00:02:56;;;;;;;9.83;5.93;;;7.00;99.90;6.90;100859.00;;;;4889170;28;90043;-65
2024/03/21 00:05:23;;;;;;;11.00;5.53;;;7.00;99.90;6.90;100866.00;;;;4887568;28;88827;-65
2024/03/21 00:07:49;;;;;;;10.10;6.13;;;7.10;99.90;6.90;100866.00;;;;4888524;28;87956;-65
2024/03/21 00:10:19;;;;;;;7.53;5.83;;;7.10;99.90;6.90;100857.00;;;;4883776;28;87844;-65
2024/03/21 00:12:46;;;;;;;9.13;5.70;;;7.40;99.90;7.00;100856.00;;;;4882971;28;88961;-66
2024/03/21 00:15:12;;;;;;;8.57;5.63;;;7.10;99.90;7.00;100852.00;;;;4897863;28;96693;-65
2024/03/21 00:17:38;;;;;;;7.40;5.03;;;7.10;99.90;7.00;100851.00;;;;4879687;28;87697;-66
2024/03/21 00:20:10;;;;;;;7.97;4.50;;;7.40;99.90;7.10;100846.00;;;;4883964;28;108887;-65
2024/03/21 00:22:37;;;;;;;9.03;4.50;;;7.20;99.90;7.10;100843.00;;;;4887224;28;89014;-65
2024/03/21 00:25:04;;;;;;;8.77;4.40;;;7.20;99.90;7.00;100830.00;;;;4884752;28;87935;-66
2024/03/21 00:27:32;;;;;;;9.33;4.83;;;7.20;99.90;7.00;100849.00;;;;4884379;28;99469;-66
2024/03/21 00:29:58;;;;;;;5.77;4.47;;;7.10;99.90;6.90;100843.00;;;;4883648;28;87454;-65
2024/03/21 00:32:23;;;;;;;8.43;4.40;;;7.10;99.90;6.90;100836.00;;;;4883405;28;88968;-65
2024/03/21 00:34:49;;;;;;;7.40;5.00;;;7.10;99.90;6.90;100831.00;;;;4877910;28;118225;-68
2024/03/21 00:37:15;;;;;;;6.37;4.33;;;7.00;99.90;6.90;100824.00;;;;4881846;28;89306;-65
2024/03/21 00:39:43;;;;;;;5.43;4.23;;;7.00;99.90;6.90;100824.00;;;;4883371;28;107354;-65
2024/03/21 00:42:12;;;;;;;5.90;4.20;;;7.00;99.90;6.90;100833.00;;;;4882853;28;88647;-66
2024/03/21 00:44:37;;;;;;;5.97;3.70;;;7.10;99.90;6.90;100818.00;;;;4886432;28;87008;-66
2024/03/21 00:47:03;;;;;;;6.30;4.10;;;7.10;99.90;7.00;100820.00;;;;4884739;28;109640;-65
2024/03/21 00:49:29;;;;;;;6.00;4.50;;;7.10;99.90;7.00;100827.00;;;;4890137;28;88009;-65
2024/03/21 00:51:56;;;;;;;5.53;4.43;;;7.10;99.90;7.00;100824.00;;;;4883625;28;97569;-65
2024/03/21 00:54:22;;;;;;;5.87;4.63;;;7.20;99.90;7.00;100825.00;;;;4884847;28;88145;-65
2024/03/21 00:56:48;;;;;;;9.17;4.87;;;7.20;99.90;7.00;100822.00;;;;4881555;28;109873;-65
2024/03/21 00:59:14;;;;;;;7.83;4.70;;;7.20;99.90;7.10;100821.00;;;;4879324;28;108429;-65
2024/03/21 01:01:40;;;;;;;7.17;4.47;;;7.50;99.90;7.10;100830.00;;;;4880609;28;116064;-65
2024/03/21 01:04:07;;;;;;;10.37;5.50;;;7.20;99.90;7.10;100826.00;;;;4881040;28;87828;-65
2024/03/21 01:06:33;;;;;;;9.27;3.87;;;7.20;99.90;7.10;100821.00;;;;4882737;28;87634;-65
2024/03/21 01:08:59;;;;;;;6.33;4.40;;;7.30;99.90;7.20;100835.00;;;;4880696;28;90224;-65
2024/03/21 01:11:25;;;;;;;5.10;4.60;;;7.40;99.90;7.20;100831.00;;;;4878659;28;115600;-65
2024/03/21 01:13:50;;;;;;;5.47;4.33;;;7.30;99.90;7.20;100824.00;;;;4876244;28;117096;-66
2024/03/21 01:16:16;;;;;;;5.17;4.67;;;7.50;99.90;7.30;100819.00;;;;4881336;28;110383;-65
2024/03/21 01:18:42;;;;;;;6.90;4.53;;;7.40;99.90;7.30;100816.00;;;;4880972;28;87996;-65
2024/03/21 01:21:08;;;;;;;6.57;4.63;;;7.40;99.90;7.30;100823.00;;;;4876666;28;107679;-65
2024/03/21 01:23:34;;;;;;;9.53;5.63;;;7.40;99.90;7.30;100816.00;;;;4883537;28;87722;-65
2024/03/21 01:26:01;;;;;;;8.03;4.73;;;7.30;99.90;7.20;100816.00;;;;4879909;28;88284;-65
2024/03/21 01:28:27;;;;;;;7.23;4.60;;;7.30;99.90;7.20;100819.00;;;;4878224;28;93985;-65
2024/03/21 01:30:52;;;;;;;5.43;4.33;;;7.30;99.90;7.20;100808.00;;;;4880835;28;116539;-65
2024/03/21 01:33:18;;;;;;;9.33;5.13;;;7.40;99.90;7.10;100809.00;;;;4878795;28;116463;-65
2024/03/21 01:35:44;;;;;;;7.43;4.53;;;7.60;99.90;7.10;100810.00;;;;4885934;28;88273;-65
2024/03/21 01:38:11;;;;;;;7.97;4.80;;;7.30;99.90;7.00;100810.00;;;;4880969;28;107998;-65
2024/03/21 01:40:37;;;;;;;7.97;4.83;;;7.20;99.90;7.00;100812.00;;;;4881266;28;88637;-65
2024/03/21 01:43:24;;;;;;;9.60;5.47;;;7.20;99.90;6.90;100803.00;;;;4880295;28;89675;-65
2024/03/21 01:46:09;;;;;;;5.77;4.73;;;7.10;99.90;6.90;100798.00;;;;4870769;28;88110;-65
2024/03/21 01:48:37;;;;;;;11.87;4.77;;;7.10;99.90;7.00;100797.00;;;;4878861;28;88226;-65
2024/03/21 01:51:03;;;;;;;4.77;3.70;;;7.10;99.90;7.00;100799.00;;;;4878910;28;89210;-65
2024/03/21 01:53:29;;;;;;;6.50;4.83;;;7.10;99.90;7.00;100797.00;;;;4880023;28;88231;-65
2024/03/21 01:55:55;;;;;;;8.13;4.30;;;7.10;99.90;7.00;100803.00;;;;4884040;28;109586;-65
2024/03/21 01:58:21;;;;;;;7.80;4.60;;;7.20;99.90;7.00;100791.00;;;;4880194;28;87241;-65
2024/03/21 02:00:47;;;;;;;6.47;4.90;;;7.10;99.90;7.00;100789.00;;;;4878926;28;99836;-65
2024/03/21 02:03:14;;;;;;;6.87;3.90;;;7.70;99.90;7.00;100786.00;;;;4878249;28;108298;-65
2024/03/21 02:05:39;;;;;;;5.93;3.67;;;7.10;99.90;6.90;100797.00;;;;4879802;28;88689;-66
2024/03/21 02:08:07;;;;;;;9.10;4.20;;;7.60;99.90;7.00;100782.00;;;;4881223;28;107867;-65
2024/03/21 02:10:34;;;;;;;6.37;3.73;;;7.00;99.90;7.00;100792.00;;;;4875681;28;89549;-65
2024/03/21 02:13:00;;;;;;;6.40;4.30;;;7.00;99.90;7.00;100795.00;;;;4881868;28;88451;-65
2024/03/21 02:15:26;;;;;;;9.43;4.17;;;6.70;99.90;7.10;100784.00;;;;4881461;28;110910;-64
2024/03/21 02:17:51;;;;;;;6.67;3.60;;;7.20;99.90;7.10;100790.00;;;;4881110;28;100102;-65
2024/03/21 02:20:17;;;;;;;7.77;3.93;;;7.20;99.90;7.10;100795.00;;;;4880113;28;119176;-65
2024/03/21 02:22:43;;;;;;;9.00;4.00;;;7.20;99.90;7.10;100786.00;;;;4882598;28;116355;-65
2024/03/21 02:25:10;;;;;;;4.67;3.60;;;7.30;99.90;7.20;100791.00;;;;4882291;28;110728;-65
2024/03/21 02:27:37;;;;;;;5.97;3.83;;;7.30;99.90;7.20;100795.00;;;;4883153;28;87849;-65
2024/03/21 02:30:04;;;;;;;5.30;3.73;;;7.30;99.90;7.20;100797.00;;;;4873004;28;89075;-65
2024/03/21 02:32:30;;;;;;;8.27;4.30;;;7.30;99.90;7.20;100794.00;;;;4884131;28;90209;-65
2024/03/21 02:34:56;;;;;;;5.93;3.87;;;7.40;99.90;7.30;100789.00;;;;4879873;28;98192;-65
2024/03/21 02:37:22;;;;;;;4.63;3.40;;;7.50;99.90;7.30;100786.00;;;;4879120;28;108959;-65
2024/03/21 02:39:52;;;;;;;5.03;4.20;;;7.50;99.90;7.30;100784.00;;;;4881630;28;95469;-65
2024/03/21 02:42:18;;;;;;;8.13;3.70;;;7.40;99.90;7.30;100778.00;;;;4877539;28;88637;-65
2024/03/21 02:44:46;;;;;;;6.07;3.90;;;7.40;99.90;7.30;100781.00;;;;4883751;28;94082;-64
2024/03/21 02:47:12;;;;;;;3.77;3.30;;;7.40;99.90;7.20;100774.00;;;;4879686;28;87139;-65
2024/03/21 02:49:38;;;;;;;7.63;4.37;;;7.40;99.90;7.20;100773.00;;;;4877861;28;111904;-66
2024/03/21 02:52:04;;;;;;;6.60;4.53;;;7.40;99.90;7.20;100783.00;;;;4874508;28;117124;-65
2024/03/21 02:54:31;;;;;;;6.67;4.47;;;7.30;99.90;7.10;100775.00;;;;4877110;28;88828;-65
2024/03/21 02:56:58;;;;;;;5.37;4.20;;;7.20;99.90;7.10;100769.00;;;;4883914;28;87807;-65
2024/03/21 02:59:24;;;;;;;4.50;4.07;;;7.30;99.90;7.10;100775.00;;;;4878714;28;101199;-65
2024/03/21 03:01:50;;;;;;;5.60;3.67;;;7.20;99.90;7.10;100770.00;;;;4879499;28;118578;-65
2024/03/21 03:04:15;;;;;;;6.10;4.27;;;7.30;99.90;7.20;100766.00;;;;4875873;28;110182;-65
2024/03/21 03:06:41;;;;;;;7.53;4.30;;;7.60;99.90;7.20;100772.00;;;;4875731;28;108468;-66
2024/03/21 03:09:08;;;;;;;6.70;4.90;;;7.60;99.90;7.20;100782.00;;;;4878387;28;88166;-65
2024/03/21 03:11:36;;;;;;;7.33;4.03;;;7.20;99.90;7.30;100771.00;;;;4875297;28;88465;-65
2024/03/21 03:14:02;;;;;;;7.97;4.60;;;7.40;99.90;7.30;100775.00;;;;4875633;28;88006;-65
2024/03/21 03:16:28;;;;;;;5.23;4.60;;;7.40;99.90;7.30;100775.00;;;;4876120;28;105438;-65
2024/03/21 03:18:53;;;;;;;4.20;3.80;;;7.60;99.90;7.30;100774.00;;;;4879907;28;118965;-65
2024/03/21 03:21:19;;;;;;;10.87;5.27;;;7.50;99.90;7.30;100772.00;;;;4879841;28;118039;-65
2024/03/21 03:23:45;;;;;;;7.23;4.10;;;7.50;99.90;7.40;100767.00;;;;4876424;28;110577;-65
2024/03/21 03:26:10;;;;;;;7.87;5.27;;;7.80;99.90;7.40;100764.00;;;;4883503;28;108543;-65
2024/03/21 03:28:36;;;;;;;5.30;4.07;;;7.40;99.90;7.50;100763.00;;;;4879708;28;116589;-64
2024/03/21 03:31:01;;;;;;;5.70;3.83;;;7.60;99.90;7.50;100763.00;;;;4877722;28;117097;-65
2024/03/21 03:36:11;;;;;;;6.33;4.43;;;7.60;99.90;7.60;100760.00;;;;4880086;28;87283;-65
2024/03/21 03:38:37;;;;;;;7.43;4.27;;;7.70;99.90;7.60;100762.00;;;;4877233;28;118379;-65
2024/03/21 03:41:03;;;;;;;14.33;7.03;;;7.70;99.90;7.60;100758.00;;;;4878911;28;117032;-65
2024/03/21 03:43:29;;;;;;;9.63;5.80;;;7.70;99.90;7.70;100754.00;;;;4876900;28;110237;-65
2024/03/21 03:45:54;;;;;;;12.67;6.20;;;7.80;99.90;7.70;100757.00;;;;4874713;28;109139;-65
2024/03/21 03:48:20;;;;;;;7.73;4.53;;;7.80;99.90;7.70;100749.00;;;;4875860;28;117499;-65
2024/03/21 03:50:45;;;;;;;12.80;5.23;;;7.80;99.90;7.80;100757.00;;;;4876356;28;118130;-65
2024/03/21 03:53:11;;;;;;;7.90;5.60;;;8.00;99.90;7.80;100768.00;;;;4880995;28;109756;-65
2024/03/21 03:55:37;;;;;;;8.13;4.60;;;7.90;99.90;7.90;100776.00;;;;4878302;28;108662;-66
2024/03/21 03:58:03;;;;;;;8.50;5.10;;;8.00;99.90;7.90;100764.00;;;;4877971;28;88203;-65
2024/03/21 04:00:28;;;;;;;7.10;5.10;;;8.00;99.90;7.90;100764.00;;;;4876716;28;107691;-65
2024/03/21 04:02:54;;;;;;;8.07;5.30;;;8.00;99.90;7.90;100769.00;;;;4882758;28;109877;-65
2024/03/21 04:05:20;;;;;;;11.47;4.67;;;8.10;99.90;7.90;100762.00;;;;4882743;28;105166;-65
2024/03/21 04:07:46;;;;;;;7.13;5.23;;;8.10;99.90;7.90;100756.00;;;;4875841;28;89474;-66
2024/03/21 04:10:12;;;;;;;7.80;4.60;;;8.10;99.90;7.90;100760.00;;;;4877595;28;116107;-66
2024/03/21 04:12:39;;;;;;;7.93;4.90;;;8.00;99.90;7.90;100763.00;;;;4878540;28;88002;-66
2024/03/21 04:15:06;;;;;;;8.43;4.90;;;8.10;99.90;7.90;100755.00;;;;4874943;28;87874;-64
2024/03/21 04:17:32;;;;;;;9.77;5.10;;;8.10;99.90;8.00;100756.00;;;;4874361;28;91915;-65
2024/03/21 04:19:57;;;;;;;8.60;5.90;;;8.00;99.90;8.00;100761.00;;;;4870160;28;99511;-65
2024/03/21 04:22:23;;;;;;;10.63;6.20;;;8.10;99.90;8.00;100755.00;;;;4874965;28;100008;-65
2024/03/21 04:24:50;;;;;;;8.17;5.50;;;8.10;99.90;8.00;100760.00;;;;4878047;28;97583;-64
2024/03/21 04:27:15;;;;;;;10.10;5.17;;;8.10;99.90;8.00;100752.00;;;;4880289;28;93530;-64
2024/03/21 04:29:41;;;;;;;11.03;6.20;;;8.10;99.90;8.10;100758.00;;;;4879917;28;117978;-64
2024/03/21 04:32:15;;;;;;;10.03;5.23;;;8.20;99.90;8.10;100750.00;;;;4873485;28;111129;-64
2024/03/21 04:34:41;;;;;;;8.00;5.80;;;8.20;99.90;8.10;100745.00;;;;4882539;28;87935;-64
2024/03/21 04:37:13;;;;;;;9.07;4.63;;;8.20;99.90;8.10;100753.00;;;;4879220;28;88940;-64
2024/03/21 04:39:39;;;;;;;5.67;4.80;;;8.20;99.90;8.10;100754.00;;;;4879379;28;87762;-64
2024/03/21 04:42:04;;;;;;;6.57;4.43;;;8.20;99.90;8.10;100755.00;;;;4880336;28;109599;-65
2024/03/21 04:44:30;;;;;;;7.97;5.67;;;8.20;99.90;8.10;100746.00;;;;4881059;28;97009;-65
2024/03/21 04:46:56;;;;;;;9.03;5.27;;;8.30;99.90;8.10;100744.00;;;;4879401;28;117539;-64
2024/03/21 04:49:21;;;;;;;8.27;5.17;;;8.30;99.90;8.20;100758.00;;;;4877863;28;118596;-64
2024/03/21 04:51:47;;;;;;;7.63;4.57;;;8.30;99.90;8.20;100759.00;;;;4882886;28;111195;-64
2024/03/21 04:54:13;;;;;;;6.00;4.03;;;8.30;99.90;8.20;100750.00;;;;4878905;28;109083;-66
2024/03/21 04:56:38;;;;;;;6.90;5.10;;;8.30;99.90;8.20;100748.00;;;;4862751;28;118388;-64
2024/03/21 04:59:04;;;;;;;8.23;4.10;;;8.40;99.90;8.30;100757.00;;;;4877093;28;116656;-64
2024/03/21 05:01:30;;;;;;;7.43;5.20;;;8.40;99.90;8.30;100761.00;;;;4881947;28;87635;-64
2024/03/21 05:03:56;;;;;;;11.40;4.97;;;8.40;99.90;8.30;100761.00;;;;4878984;28;88877;-65
2024/03/21 05:06:22;;;;;;;5.87;4.00;;;8.40;99.90;8.30;100772.00;;;;4880178;28;118403;-64
2024/03/21 05:08:47;;;;;;;12.67;6.40;;;8.40;99.90;8.30;100768.00;;;;4878235;28;117834;-64
2024/03/21 05:11:14;;;;;;;12.30;6.87;;;8.40;99.90;8.30;100772.00;;;;4884124;28;87663;-65
2024/03/21 05:13:42;;;;;;;9.70;7.43;;;8.40;99.90;8.30;100765.00;;;;4882041;28;86975;-66
2024/03/21 05:16:07;;;;;;;11.80;7.40;;;8.60;99.90;8.30;100775.00;;;;4886750;28;88677;-65
2024/03/21 05:18:33;;;;;;;9.33;7.70;;;8.40;99.90;8.30;100760.00;;;;4888977;28;117961;-65
2024/03/21 05:20:59;;;;;;;14.27;8.90;;;8.40;99.90;8.30;100762.00;;;;4891368;28;108988;-65
2024/03/21 05:23:25;;;;;;;10.80;6.67;;;8.50;99.90;8.30;100760.00;;;;4885355;28;90922;-65
2024/03/21 05:25:51;;;;;;;8.40;5.27;;;8.40;99.90;8.30;100764.00;;;;4885082;28;88644;-65
2024/03/21 05:28:16;;;;;;;5.67;4.10;;;8.40;99.90;8.30;100759.00;;;;4879324;28;117111;-65
2024/03/21 05:30:42;;;;;;;8.70;4.63;;;8.40;99.90;8.30;100760.00;;;;4881147;28;109721;-65
2024/03/21 05:33:09;;;;;;;9.53;6.10;;;8.40;99.90;8.30;100759.00;;;;4874692;28;108994;-65
2024/03/21 05:35:35;;;;;;;11.37;7.00;;;8.40;99.90;8.30;100760.00;;;;4870233;28;89374;-65
2024/03/21 05:38:02;;;;;;;11.93;7.73;;;8.50;99.90;8.30;100755.00;;;;4877386;28;88225;-65
2024/03/21 05:40:27;;;;;;;9.20;6.23;;;8.50;99.90;8.30;100757.00;;;;4877905;28;88061;-66
2024/03/21 05:42:53;;;;;;;8.57;5.53;;;8.40;99.90;8.30;100765.00;;;;4874893;28;108179;-66
2024/03/21 05:45:19;;;;;;;14.73;7.80;;;8.50;99.90;8.30;100760.00;;;;4875485;28;93069;-65
2024/03/21 05:47:44;;;;;;;8.17;6.07;;;8.50;99.90;8.40;100761.00;;;;4877840;28;118658;-66
2024/03/21 05:50:10;;;;;;;14.70;6.27;;;8.50;99.90;8.40;100759.00;;;;4878011;28;109653;-65
2024/03/21 05:52:36;;;;;;;10.17;6.13;;;8.50;99.90;8.40;100759.00;;;;4878493;28;87936;-65
2024/03/21 05:55:02;;;;;;;8.67;5.97;;;8.50;99.90;8.50;100754.00;;;;4877695;28;88535;-65
2024/03/21 05:57:27;;;;;;;6.77;6.07;;;8.60;99.90;8.50;100763.00;;;;4875290;28;88037;-65
2024/03/21 05:59:54;;;;;;;8.93;6.00;;;8.60;99.90;8.50;100757.00;;;;4879207;28;109963;-65
2024/03/21 06:02:20;;;;;;;10.07;6.20;;;8.60;99.90;8.60;100754.00;;;;4877318;28;87457;-65
2024/03/21 06:04:46;;;;;;;10.27;5.90;;;8.60;99.90;8.60;100757.00;;;;4879708;28;108089;-65
2024/03/21 06:07:12;;;;;;;8.47;6.53;;;8.70;99.90;8.70;100754.00;;;;4881206;28;107288;-65
2024/03/21 06:09:38;;;;;;;8.83;6.43;;;8.70;99.90;8.70;100764.00;;;;4879387;28;109625;-65
2024/03/21 06:12:04;;;;;;;9.30;6.70;;;8.80;99.90;8.80;100755.00;;;;4882317;28;109083;-67
2024/03/21 06:14:29;;;;;;;12.47;7.03;;;8.80;99.90;8.80;100753.00;;;;4875119;28;103976;-64
2024/03/21 06:16:55;;;;;;;8.77;6.33;;;8.90;99.90;8.90;100752.00;;;;4879430;28;89498;-65
2024/03/21 06:19:21;;;;;;;9.97;6.63;;;9.00;99.90;9.00;100756.00;;;;4879676;28;110477;-64
2024/03/21 06:21:46;;;;;;;10.20;5.83;;;9.00;99.90;9.00;100746.00;;;;4878444;28;107920;-64
2024/03/21 06:24:12;;;;;;;6.73;5.20;;;9.10;99.90;9.00;100761.00;;;;4879540;28;118296;-65
2024/03/21 06:26:37;;;;;;;10.83;6.80;;;9.10;99.90;9.10;100749.00;;;;4879051;28;117416;-65
2024/03/21 06:29:03;;;;;;;9.60;6.77;;;9.10;99.90;9.20;100751.00;;;;4877636;28;111699;-65
2024/03/21 06:31:30;;;;;;;7.37;5.87;;;9.20;99.90;9.20;100758.00;;;;4877507;28;88250;-65
2024/03/21 06:33:55;;;;;;;13.90;6.73;;;9.20;99.90;9.30;100756.00;;;;4878527;28;89818;-65
2024/03/21 06:36:21;;;;;;;7.23;5.73;;;9.30;99.90;9.30;100765.00;;;;4879909;28;115511;-65
2024/03/21 06:38:47;;;;;;;12.03;6.00;;;9.50;99.90;9.40;100754.00;;;;4876138;28;109499;-65
2024/03/21 06:41:16;;;;;;;7.87;5.23;;;9.50;99.90;9.40;100765.00;;;;4879110;28;87871;-65
2024/03/21 06:43:42;;;;;;;9.37;5.37;;;9.50;99.90;9.50;100767.00;;;;4876972;28;87759;-64
2024/03/21 06:46:08;;;;;;;9.20;6.07;;;9.50;99.90;9.60;100763.00;;;;4877604;28;117026;-65
2024/03/21 06:48:33;;;;;;;7.97;5.47;;;9.60;99.90;9.70;100771.00;;;;4881604;28;110293;-65
2024/03/21 06:51:00;;;;;;;7.87;6.00;;;9.70;99.90;9.80;100772.00;;;;4877460;28;108831;-65
2024/03/21 06:53:26;;;;;;;9.17;5.90;;;9.80;99.90;9.80;100778.00;;;;4879833;28;89017;-65
2024/03/21 06:55:55;;;;;;;9.53;6.43;;;9.90;99.90;9.90;100771.00;;;;4883024;28;88699;-65
2024/03/21 06:58:21;;;;;;;13.07;6.70;;;10.00;99.90;10.10;100771.00;;;;4873219;28;109516;-65
2024/03/21 07:00:46;;;;;;;8.37;6.50;;;10.00;99.90;10.10;100761.00;;;;4881845;28;87886;-65
2024/03/21 07:03:14;;;;;;;8.60;6.47;;;10.10;99.90;10.20;100759.00;;;;4885213;28;87725;-66
2024/03/21 07:05:40;;;;;;;11.17;6.93;;;10.20;99.90;10.30;100765.00;;;;4879569;28;87831;-65
2024/03/21 07:08:07;;;;;;;10.33;6.30;;;10.30;99.90;10.40;100760.00;;;;4877254;28;87762;-65
2024/03/21 07:10:32;;;;;;;10.13;5.67;;;10.40;99.90;10.40;100758.00;;;;4884221;28;88093;-65
2024/03/21 07:12:58;;;;;;;13.77;6.13;;;10.50;99.90;10.50;100749.00;;;;4881540;28;101210;-65
2024/03/21 07:15:24;;;;;;;8.37;5.27;;;10.50;99.90;10.50;100753.00;;;;4883564;28;116279;-65
2024/03/21 07:17:49;;;;;;;10.93;6.37;;;10.50;99.90;10.60;100752.00;;;;4879188;28;110056;-65
2024/03/21 07:20:15;;;;;;;5.33;4.80;;;10.60;99.90;10.60;100764.00;;;;4880803;28;88546;-65
2024/03/21 07:22:43;;;;;;;8.43;5.97;;;10.60;99.90;10.70;100760.00;;;;4877738;28;89446;-65
2024/03/21 07:25:10;;;;;;;7.73;5.47;;;10.70;99.90;10.80;100765.00;;;;4883716;28;89702;-65
2024/03/21 07:27:36;;;;;;;15.00;6.57;;;10.80;99.90;10.90;100764.00;;;;4875196;28;87901;-65
2024/03/21 07:30:11;;;;;;;8.90;5.23;;;10.90;99.90;11.10;100770.00;;;;4881516;28;108512;-65
2024/03/21 07:32:37;;;;;;;9.03;5.83;;;11.00;99.90;11.20;100765.00;;;;4880369;28;88932;-65
2024/03/21 07:35:04;;;;;;;10.57;6.57;;;11.40;99.90;11.20;100767.00;;;;4878722;28;109632;-65
2024/03/21 07:37:30;;;;;;;11.67;6.07;;;11.20;99.90;11.30;100775.00;;;;4877128;28;100962;-65
2024/03/21 07:39:55;;;;;;;10.07;5.63;;;11.70;99.90;11.40;100763.00;;;;4880339;28;107655;-65
2024/03/21 07:42:21;;;;;;;8.60;5.27;;;11.40;99.90;11.50;100765.00;;;;4876460;28;89039;-65
2024/03/21 07:44:47;;;;;;;5.87;4.47;;;11.50;99.90;11.60;100774.00;;;;4877820;28;118468;-65
2024/03/21 07:47:13;;;;;;;8.27;5.40;;;11.60;99.90;11.70;100771.00;;;;4878721;28;98431;-65
2024/03/21 07:49:39;;;;;;;8.93;4.77;;;11.60;99.90;11.80;100759.00;;;;4878361;28;108820;-65
2024/03/21 07:52:05;;;;;;;7.00;5.03;;;11.70;99.90;11.90;100764.00;;;;4878421;28;118101;-65
2024/03/21 07:54:32;;;;;;;7.30;4.93;;;11.80;99.90;11.90;100770.00;;;;4879954;28;87902;-65
2024/03/21 07:56:58;;;;;;;8.73;6.10;;;11.90;99.90;12.00;100770.00;;;;4882378;28;89176;-65
2024/03/21 07:59:24;;;;;;;5.90;4.63;;;12.00;99.90;12.10;100774.00;;;;4877464;28;87744;-65
2024/03/21 08:01:49;;;;;;;12.63;6.20;;;12.10;99.90;12.20;100769.00;;;;4879671;28;94330;-65
2024/03/21 08:04:15;;;;;;;6.43;5.00;;;12.20;99.90;12.20;100766.00;;;;4881354;28;117293;-65
2024/03/21 08:06:41;;;;;;;11.20;5.47;;;12.20;99.90;12.30;100769.00;;;;4881532;28;94089;-65
2024/03/21 08:09:09;;;;;;;8.23;5.07;;;12.30;99.90;12.40;100762.00;;;;4877025;28;87987;-65
2024/03/21 08:11:35;;;;;;;6.50;4.73;;;12.40;99.90;12.50;100768.00;;;;4877094;28;89465;-64
2024/03/21 08:14:01;;;;;;;14.07;5.20;;;12.40;99.90;12.50;100770.00;;;;4884364;28;89206;-65
2024/03/21 08:16:28;;;;;;;8.63;5.07;;;12.50;99.90;12.60;100774.00;;;;4885284;28;88156;-65
2024/03/21 08:18:54;;;;;;;5.77;4.03;;;12.50;99.90;12.70;100769.00;;;;4881140;28;101168;-65
2024/03/21 08:21:21;;;;;;;8.73;5.17;;;12.60;99.90;12.80;100765.00;;;;4887817;28;117193;-66
2024/03/21 08:23:47;;;;;;;8.17;5.20;;;12.70;99.90;12.80;100757.00;;;;4883992;28;87925;-65
2024/03/21 08:26:13;;;;;;;9.73;5.43;;;12.80;99.90;12.90;100767.00;;;;4886185;28;87870;-66
2024/03/21 08:28:39;;;;;;;7.57;5.27;;;12.90;99.90;13.00;100769.00;;;;4867760;28;87621;-65
2024/03/21 08:31:04;;;;;;;10.05;4.38;;;12.90;99.90;13.10;100773.00;;;;4878475;28;116905;-65
2024/03/21 08:33:30;;;;;;;7.43;3.97;;;13.00;99.90;13.10;100779.00;;;;4881491;28;119543;-65
2024/03/21 08:35:56;;;;;;;7.83;5.43;;;13.10;99.90;13.20;100779.00;;;;4881840;28;109615;-65
2024/03/21 08:38:22;;;;;;;7.30;4.87;;;13.20;99.90;13.30;100779.00;;;;4883213;28;108575;-65
2024/03/21 08:40:54;;;;;;;9.23;4.40;;;13.20;99.90;13.30;100779.00;;;;4878961;28;117947;-65
2024/03/21 08:43:22;;;;;;;8.73;5.20;;;13.30;99.90;13.50;100772.00;;;;4883384;28;88180;-65
2024/03/21 08:45:49;;;;;;;5.68;5.05;;;13.30;99.90;13.50;100786.00;;;;4882805;28;87895;-66
2024/03/21 08:48:15;;;;;;;5.90;3.85;;;13.50;99.90;13.60;100786.00;;;;4884672;28;88026;-65
2024/03/21 08:50:44;;;;;;;7.30;3.97;;;13.50;99.90;13.60;100784.00;;;;4883047;28;89100;-66
2024/03/21 08:53:10;;;;;;;4.57;4.05;;;13.90;99.90;13.70;100790.00;;;;4884134;28;87463;-65
2024/03/21 08:55:41;;;;;;;10.20;5.18;;;13.70;99.90;13.80;100785.00;;;;4880608;28;110898;-65
2024/03/21 08:58:06;;;;;;;13.80;4.55;;;13.80;99.90;13.90;100791.00;;;;4879578;28;88126;-65
2024/03/21 09:00:33;;;;;;;8.05;4.93;;;13.90;99.90;14.00;100778.00;;;;4876581;28;119416;-65
2024/03/21 09:03:03;;;;;;;8.88;5.57;;;14.00;99.90;14.10;100776.00;;;;4881361;28;89596;-65
2024/03/21 09:05:29;;;;;;;8.93;4.03;;;14.10;99.90;14.20;100777.00;;;;4878072;28;93017;-65
2024/03/21 09:07:55;;;;;;;5.70;4.75;;;14.20;99.90;14.30;100792.00;;;;4884135;28;107550;-65
2024/03/21 09:10:21;;;;;;;3.22;2.60;;;14.20;99.90;14.40;100795.00;;;;4886070;28;88352;-65
2024/03/21 09:12:47;;;;;;;4.90;3.83;;;14.30;99.90;14.40;100810.00;;;;4883816;28;88218;-65
2024/03/21 09:15:19;;;;;;;7.45;4.60;;;14.40;99.90;14.50;100809.00;;;;4886575;28;87762;-65
2024/03/21 09:17:45;;;;;;;9.73;5.55;;;14.50;99.90;14.50;100827.00;;;;4881373;28;109457;-65
2024/03/21 09:20:11;;;;;;;8.95;4.05;;;14.50;99.90;14.50;100826.00;;;;4881419;28;89380;-65
2024/03/21 09:22:38;;;;;;;5.93;4.25;;;14.50;99.90;14.50;100834.00;;;;4877628;28;107169;-65
2024/03/21 09:25:04;;;;;;;8.52;4.20;;;14.50;99.90;14.50;100830.00;;;;4882215;28;89129;-65
2024/03/21 09:27:30;;;;;;;6.57;4.00;;;14.50;99.90;14.40;100839.00;;;;4881739;28;99475;-65
2024/03/21 09:29:56;;;;;;;7.65;4.70;;;14.50;99.90;14.30;100845.00;;;;4881566;28;88042;-65
2024/03/21 09:32:22;;;;;;;6.03;3.47;;;14.40;99.90;14.30;100857.00;;;;4877422;28;111617;-65
2024/03/21 09:34:51;;;;;;;9.00;5.03;;;14.50;99.90;14.20;100864.00;;;;4877931;28;105839;-65
2024/03/21 09:37:18;;;;;;;6.07;4.43;;;14.20;99.90;14.00;100859.00;;;;4876051;28;87976;-66
2024/03/21 09:39:44;;;;;;;7.55;4.68;;;14.10;99.90;13.90;100871.00;;;;4880491;28;87733;-66
2024/03/21 09:42:17;;;;;;;4.35;3.95;;;14.00;99.90;13.70;100865.00;;;;4882047;28;88363;-66
2024/03/21 09:44:49;;;;;;;6.05;3.83;;;13.90;99.90;13.50;100864.00;;;;4878253;28;87679;-65
2024/03/21 09:47:20;;;;;;;8.60;5.55;;;13.60;99.90;13.30;100873.00;;;;4879987;28;88173;-65
2024/03/21 09:49:52;;;;;;;8.23;5.32;;;13.50;99.90;13.10;100887.00;;;;4879396;28;89025;-64
2024/03/21 09:52:18;;;;;;;9.87;4.93;;;13.20;99.90;12.80;100891.00;;;;4879031;28;88032;-65
2024/03/21 09:54:44;;;;;;;7.72;5.38;;;13.00;99.90;12.60;100900.00;;;;4874828;28;109800;-63
2024/03/21 09:57:15;;;;;;;9.23;4.75;;;13.40;99.90;12.40;100890.00;;;;4877741;28;88310;-63
2024/03/21 09:59:41;;;;;;;8.03;5.47;;;12.50;99.90;12.10;100889.00;;;;4880254;28;88041;-64
2024/03/21 10:02:14;;;;;;;9.93;4.63;;;12.90;99.90;12.00;100886.00;;;;4885130;28;87973;-65
2024/03/21 10:04:49;;;;;;;10.47;4.97;;;12.20;99.90;11.90;100888.00;;;;4882934;28;87790;-65
2024/03/21 10:07:23;;;;;;;8.67;5.87;;;12.10;99.90;11.80;100888.00;;;;4882267;28;87335;-65
2024/03/21 10:09:57;;;;;;;10.70;4.70;;;11.90;99.90;11.70;100893.00;;;;4880348;28;88492;-65
2024/03/21 10:12:25;;;;;;;5.57;4.33;;;11.90;99.90;11.60;100887.00;;;;4881740;28;87674;-64
2024/03/21 10:14:53;;;;;;;10.70;5.47;;;11.70;99.90;11.50;100894.00;;;;4881570;28;88884;-62
2024/03/21 10:17:19;;;;;;;8.33;5.40;;;11.60;99.90;11.40;100901.00;;;;4881198;28;87655;-63
2024/03/21 10:19:45;;;;;;;6.43;4.47;;;11.10;99.90;11.30;100912.00;;;;4877644;28;88255;-63
2024/03/21 10:22:24;;;;;;;6.80;5.73;;;12.20;99.90;11.20;100915.00;;;;4880517;28;88019;-63
2024/03/21 10:24:55;;;;;;;12.67;5.63;;;11.40;99.90;11.20;100903.00;;;;4879222;28;88063;-63
2024/03/21 10:27:22;;;;;;;7.47;5.33;;;11.30;99.90;11.10;100907.00;;;;4893455;28;87903;-63
2024/03/21 10:29:52;;;;;;;9.87;6.67;;;11.20;99.90;11.00;100903.00;;;;4881249;28;89308;-63
2024/03/21 10:32:20;;;;;;;9.87;6.10;;;11.20;99.90;11.00;100898.00;;;;4875382;28;89133;-63
2024/03/21 10:34:52;;;;;;;11.63;5.87;;;11.00;99.90;11.00;100901.00;;;;4880152;28;87707;-63
2024/03/21 10:37:20;;;;;;;7.33;5.53;;;11.10;99.90;11.00;100895.00;;;;4878133;28;89161;-64
2024/03/21 10:39:48;;;;;;;9.57;5.23;;;11.10;99.90;11.00;100898.00;;;;4882946;28;89763;-63
2024/03/21 10:42:26;;;;;;;7.87;4.57;;;11.10;99.90;11.00;100894.00;;;;4876243;28;88473;-63
2024/03/21 10:44:58;;;;;;;9.17;5.47;;;11.10;99.90;11.10;100902.00;;;;4882673;28;87635;-63
2024/03/21 10:47:25;;;;;;;7.00;6.27;;;11.10;99.90;11.10;100891.00;;;;4879537;28;88170;-62
2024/03/21 10:49:51;;;;;;;9.13;5.70;;;10.70;99.90;11.20;100896.00;;;;4882958;28;90145;-62
2024/03/21 10:52:17;;;;;;;8.57;5.90;;;11.20;99.90;11.30;100898.00;;;;4881441;28;116407;-62